sensor_id;sensor_type;location;lat;lon;timestamp;P1;durP1;ratioP1;P2;durP2;ratioP2
14858;SDS011;7521;51.700;6.874;2023-02-23T00:00:00;62.97;;;43.53;;
14858;SDS011;7521;51.700;6.874;2023-02-23T00:03:12;70.73;;;45.07;;
14858;SDS011;7521;51.700;6.874;2023-02-23T00:06:18;67.63;;;45.83;;
14858;SDS011;7521;51.700;6.874;2023-02-23T00:09:23;67.53;;;47.17;;
14858;SDS011;7521;51.700;6.874;2023-02-23T00:12:28;63.90;;;45.23;;
14858;SDS011;7521;51.700;6.874;2023-02-23T00:15:33;66.28;;;45.50;;
14858;SDS011;7521;51.700;6.874;2023-02-23T00:18:50;66.27;;;45.57;;
14858;SDS011;7521;51.700;6.874;2023-02-23T00:21:55;72.53;;;48.60;;
14858;SDS011;7521;51.700;6.874;2023-02-23T00:25:02;71.03;;;48.57;;
14858;SDS011;7521;51.700;6.874;2023-02-23T00:28:12;74.97;;;49.30;;
14858;SDS011;7521;51.700;6.874;2023-02-23T00:31:18;69.40;;;47.03;;
14858;SDS011;7521;51.700;6.874;2023-02-23T00:34:27;78.60;;;50.93;;
14858;SDS011;7521;51.700;6.874;2023-02-23T00:37:32;72.15;;;49.50;;
14858;SDS011;7521;51.700;6.874;2023-02-23T00:40:40;77.72;;;50.08;;
14858;SDS011;7521;51.700;6.874;2023-02-23T00:43:45;73.20;;;50.10;;
14858;SDS011;7521;51.700;6.874;2023-02-23T00:46:53;71.63;;;49.23;;
14858;SDS011;7521;51.700;6.874;2023-02-23T00:49:59;72.77;;;47.80;;
14858;SDS011;7521;51.700;6.874;2023-02-23T00:53:04;68.45;;;47.35;;
14858;SDS011;7521;51.700;6.874;2023-02-23T00:56:10;78.82;;;50.38;;
14858;SDS011;7521;51.700;6.874;2023-02-23T00:59:16;77.93;;;51.20;;
14858;SDS011;7521;51.700;6.874;2023-02-23T01:02:21;75.70;;;50.43;;
14858;SDS011;7521;51.700;6.874;2023-02-23T01:05:26;71.07;;;48.80;;
14858;SDS011;7521;51.700;6.874;2023-02-23T01:08:32;70.03;;;47.63;;
14858;SDS011;7521;51.700;6.874;2023-02-23T01:11:38;71.63;;;45.90;;
14858;SDS011;7521;51.700;6.874;2023-02-23T01:14:45;72.70;;;49.13;;
14858;SDS011;7521;51.700;6.874;2023-02-23T01:17:51;75.37;;;49.97;;
14858;SDS011;7521;51.700;6.874;2023-02-23T01:20:56;71.22;;;48.10;;
14858;SDS011;7521;51.700;6.874;2023-02-23T01:24:02;75.05;;;47.83;;
14858;SDS011;7521;51.700;6.874;2023-02-23T01:27:07;72.57;;;48.37;;
14858;SDS011;7521;51.700;6.874;2023-02-23T01:30:12;70.47;;;48.23;;
14858;SDS011;7521;51.700;6.874;2023-02-23T01:33:18;66.97;;;46.07;;
14858;SDS011;7521;51.700;6.874;2023-02-23T01:36:24;63.72;;;46.00;;
14858;SDS011;7521;51.700;6.874;2023-02-23T01:39:30;73.33;;;48.20;;
14858;SDS011;7521;51.700;6.874;2023-02-23T01:42:38;73.00;;;48.27;;
14858;SDS011;7521;51.700;6.874;2023-02-23T01:45:43;74.10;;;50.57;;
14858;SDS011;7521;51.700;6.874;2023-02-23T01:48:49;73.07;;;50.10;;
14858;SDS011;7521;51.700;6.874;2023-02-23T01:55:03;77.73;;;49.27;;
14858;SDS011;7521;51.700;6.874;2023-02-23T01:58:11;72.90;;;46.93;;
14858;SDS011;7521;51.700;6.874;2023-02-23T02:01:19;76.43;;;49.90;;
14858;SDS011;7521;51.700;6.874;2023-02-23T02:04:25;68.17;;;49.13;;
14858;SDS011;7521;51.700;6.874;2023-02-23T02:07:31;73.07;;;48.90;;
14858;SDS011;7521;51.700;6.874;2023-02-23T02:10:39;73.90;;;50.80;;
14858;SDS011;7521;51.700;6.874;2023-02-23T02:13:44;71.30;;;48.00;;
14858;SDS011;7521;51.700;6.874;2023-02-23T02:20:20;72.63;;;47.57;;
14858;SDS011;7521;51.700;6.874;2023-02-23T02:37:11;76.77;;;49.77;;
14858;SDS011;7521;51.700;6.874;2023-02-23T02:40:25;77.53;;;49.53;;
14858;SDS011;7521;51.700;6.874;2023-02-23T02:43:34;80.67;;;51.57;;
14858;SDS011;7521;51.700;6.874;2023-02-23T02:46:45;70.43;;;49.13;;
14858;SDS011;7521;51.700;6.874;2023-02-23T02:50:01;78.07;;;51.27;;
14858;SDS011;7521;51.700;6.874;2023-02-23T02:53:09;71.73;;;48.40;;
14858;SDS011;7521;51.700;6.874;2023-02-23T02:56:16;77.23;;;50.17;;
14858;SDS011;7521;51.700;6.874;2023-02-23T02:59:23;74.23;;;48.90;;
14858;SDS011;7521;51.700;6.874;2023-02-23T03:02:47;76.17;;;48.27;;
14858;SDS011;7521;51.700;6.874;2023-02-23T03:06:11;78.27;;;49.37;;
14858;SDS011;7521;51.700;6.874;2023-02-23T03:13:03;78.77;;;50.67;;
14858;SDS011;7521;51.700;6.874;2023-02-23T03:16:42;74.13;;;49.33;;
14858;SDS011;7521;51.700;6.874;2023-02-23T03:27:36;77.60;;;49.60;;
14858;SDS011;7521;51.700;6.874;2023-02-23T03:31:19;83.73;;;52.93;;
14858;SDS011;7521;51.700;6.874;2023-02-23T03:34:47;82.93;;;52.50;;
14858;SDS011;7521;51.700;6.874;2023-02-23T03:38:16;85.63;;;54.10;;
14858;SDS011;7521;51.700;6.874;2023-02-23T03:41:40;84.00;;;52.90;;
14858;SDS011;7521;51.700;6.874;2023-02-23T03:45:07;89.90;;;52.93;;
14858;SDS011;7521;51.700;6.874;2023-02-23T03:48:32;84.50;;;51.90;;
14858;SDS011;7521;51.700;6.874;2023-02-23T03:51:58;89.57;;;54.77;;
14858;SDS011;7521;51.700;6.874;2023-02-23T03:55:25;77.80;;;50.37;;
14858;SDS011;7521;51.700;6.874;2023-02-23T03:58:53;83.63;;;54.13;;
14858;SDS011;7521;51.700;6.874;2023-02-23T04:02:17;78.90;;;49.80;;
14858;SDS011;7521;51.700;6.874;2023-02-23T04:05:43;79.97;;;50.40;;
14858;SDS011;7521;51.700;6.874;2023-02-23T04:09:07;79.07;;;49.23;;
14858;SDS011;7521;51.700;6.874;2023-02-23T04:12:33;80.37;;;52.23;;
14858;SDS011;7521;51.700;6.874;2023-02-23T04:16:01;81.07;;;51.00;;
14858;SDS011;7521;51.700;6.874;2023-02-23T04:19:07;84.27;;;53.20;;
14858;SDS011;7521;51.700;6.874;2023-02-23T04:22:12;82.50;;;52.30;;
14858;SDS011;7521;51.700;6.874;2023-02-23T04:25:17;83.00;;;51.53;;
14858;SDS011;7521;51.700;6.874;2023-02-23T04:28:27;84.83;;;53.60;;
14858;SDS011;7521;51.700;6.874;2023-02-23T04:31:32;83.20;;;52.40;;
14858;SDS011;7521;51.700;6.874;2023-02-23T04:34:37;80.10;;;51.97;;
14858;SDS011;7521;51.700;6.874;2023-02-23T04:37:42;79.53;;;50.95;;
14858;SDS011;7521;51.700;6.874;2023-02-23T04:40:48;80.07;;;50.00;;
14858;SDS011;7521;51.700;6.874;2023-02-23T04:43:53;73.87;;;49.67;;
14858;SDS011;7521;51.700;6.874;2023-02-23T04:46:58;77.07;;;50.22;;
14858;SDS011;7521;51.700;6.874;2023-02-23T04:50:04;73.20;;;49.53;;
14858;SDS011;7521;51.700;6.874;2023-02-23T04:53:09;75.57;;;49.47;;
14858;SDS011;7521;51.700;6.874;2023-02-23T04:56:14;84.00;;;51.35;;
14858;SDS011;7521;51.700;6.874;2023-02-23T04:59:20;78.30;;;49.63;;
14858;SDS011;7521;51.700;6.874;2023-02-23T05:02:25;90.32;;;55.80;;
14858;SDS011;7521;51.700;6.874;2023-02-23T05:05:31;86.63;;;52.50;;
14858;SDS011;7521;51.700;6.874;2023-02-23T05:08:36;95.37;;;55.77;;
14858;SDS011;7521;51.700;6.874;2023-02-23T05:11:41;91.73;;;52.67;;
14858;SDS011;7521;51.700;6.874;2023-02-23T05:14:46;87.30;;;52.70;;
14858;SDS011;7521;51.700;6.874;2023-02-23T05:17:52;79.97;;;50.83;;
14858;SDS011;7521;51.700;6.874;2023-02-23T05:21:02;88.87;;;52.37;;
14858;SDS011;7521;51.700;6.874;2023-02-23T05:24:08;82.77;;;51.67;;
14858;SDS011;7521;51.700;6.874;2023-02-23T05:27:13;84.30;;;51.17;;
14858;SDS011;7521;51.700;6.874;2023-02-23T05:30:19;88.07;;;52.67;;
14858;SDS011;7521;51.700;6.874;2023-02-23T05:33:24;95.13;;;53.93;;
14858;SDS011;7521;51.700;6.874;2023-02-23T05:36:29;87.17;;;52.20;;
14858;SDS011;7521;51.700;6.874;2023-02-23T05:39:34;85.68;;;52.03;;
14858;SDS011;7521;51.700;6.874;2023-02-23T05:42:40;87.07;;;53.35;;
14858;SDS011;7521;51.700;6.874;2023-02-23T05:45:45;102.10;;;57.95;;
14858;SDS011;7521;51.700;6.874;2023-02-23T05:48:50;94.57;;;55.60;;
14858;SDS011;7521;51.700;6.874;2023-02-23T05:51:59;107.17;;;58.23;;
14858;SDS011;7521;51.700;6.874;2023-02-23T05:55:04;101.65;;;57.22;;
14858;SDS011;7521;51.700;6.874;2023-02-23T05:58:09;108.13;;;59.43;;
14858;SDS011;7521;51.700;6.874;2023-02-23T06:01:15;102.82;;;60.13;;
14858;SDS011;7521;51.700;6.874;2023-02-23T06:04:21;110.37;;;59.83;;
14858;SDS011;7521;51.700;6.874;2023-02-23T06:07:27;110.90;;;61.27;;
14858;SDS011;7521;51.700;6.874;2023-02-23T06:10:32;110.70;;;60.33;;
14858;SDS011;7521;51.700;6.874;2023-02-23T06:13:37;112.53;;;58.88;;
14858;SDS011;7521;51.700;6.874;2023-02-23T06:16:42;106.55;;;59.28;;
14858;SDS011;7521;51.700;6.874;2023-02-23T06:19:49;108.07;;;59.70;;
14858;SDS011;7521;51.700;6.874;2023-02-23T06:22:54;107.28;;;60.45;;
14858;SDS011;7521;51.700;6.874;2023-02-23T06:25:59;117.97;;;62.28;;
14858;SDS011;7521;51.700;6.874;2023-02-23T06:29:04;118.40;;;61.13;;
14858;SDS011;7521;51.700;6.874;2023-02-23T06:32:09;121.90;;;62.23;;
14858;SDS011;7521;51.700;6.874;2023-02-23T06:35:15;112.40;;;57.73;;
14858;SDS011;7521;51.700;6.874;2023-02-23T06:38:21;115.63;;;60.00;;
14858;SDS011;7521;51.700;6.874;2023-02-23T06:41:26;118.53;;;58.37;;
14858;SDS011;7521;51.700;6.874;2023-02-23T06:44:31;114.73;;;57.37;;
14858;SDS011;7521;51.700;6.874;2023-02-23T06:47:39;116.73;;;58.47;;
14858;SDS011;7521;51.700;6.874;2023-02-23T06:50:44;116.73;;;59.23;;
14858;SDS011;7521;51.700;6.874;2023-02-23T06:53:50;118.78;;;57.90;;
14858;SDS011;7521;51.700;6.874;2023-02-23T06:56:57;122.70;;;59.63;;
14858;SDS011;7521;51.700;6.874;2023-02-23T07:00:02;120.85;;;59.00;;
14858;SDS011;7521;51.700;6.874;2023-02-23T07:03:08;115.90;;;56.77;;
14858;SDS011;7521;51.700;6.874;2023-02-23T07:06:13;110.67;;;55.63;;
14858;SDS011;7521;51.700;6.874;2023-02-23T07:09:19;120.80;;;59.03;;
14858;SDS011;7521;51.700;6.874;2023-02-23T07:12:24;113.50;;;57.45;;
14858;SDS011;7521;51.700;6.874;2023-02-23T07:15:29;112.30;;;57.25;;
14858;SDS011;7521;51.700;6.874;2023-02-23T07:18:34;116.00;;;57.25;;
14858;SDS011;7521;51.700;6.874;2023-02-23T07:21:39;116.10;;;58.42;;
14858;SDS011;7521;51.700;6.874;2023-02-23T07:24:44;113.28;;;58.30;;
14858;SDS011;7521;51.700;6.874;2023-02-23T07:27:50;115.95;;;66.82;;
14858;SDS011;7521;51.700;6.874;2023-02-23T07:30:57;112.93;;;59.67;;
14858;SDS011;7521;51.700;6.874;2023-02-23T07:34:02;122.20;;;61.63;;
14858;SDS011;7521;51.700;6.874;2023-02-23T07:37:07;109.95;;;57.92;;
14858;SDS011;7521;51.700;6.874;2023-02-23T07:40:13;115.88;;;58.33;;
14858;SDS011;7521;51.700;6.874;2023-02-23T07:43:18;108.50;;;56.10;;
14858;SDS011;7521;51.700;6.874;2023-02-23T07:46:25;108.70;;;54.83;;
14858;SDS011;7521;51.700;6.874;2023-02-23T07:49:30;110.60;;;55.60;;
14858;SDS011;7521;51.700;6.874;2023-02-23T07:52:37;104.83;;;54.53;;
14858;SDS011;7521;51.700;6.874;2023-02-23T07:55:43;107.00;;;54.53;;
14858;SDS011;7521;51.700;6.874;2023-02-23T07:58:48;106.50;;;54.60;;
14858;SDS011;7521;51.700;6.874;2023-02-23T08:01:53;107.50;;;54.35;;
14858;SDS011;7521;51.700;6.874;2023-02-23T08:04:58;107.65;;;54.95;;
14858;SDS011;7521;51.700;6.874;2023-02-23T08:08:04;107.43;;;52.72;;
14858;SDS011;7521;51.700;6.874;2023-02-23T08:11:09;100.80;;;52.03;;
14858;SDS011;7521;51.700;6.874;2023-02-23T08:14:15;104.77;;;52.30;;
14858;SDS011;7521;51.700;6.874;2023-02-23T08:17:20;96.53;;;49.35;;
14858;SDS011;7521;51.700;6.874;2023-02-23T08:20:26;99.40;;;51.35;;
14858;SDS011;7521;51.700;6.874;2023-02-23T08:23:32;97.47;;;49.87;;
14858;SDS011;7521;51.700;6.874;2023-02-23T08:26:37;100.40;;;51.47;;
14858;SDS011;7521;51.700;6.874;2023-02-23T08:29:42;89.40;;;48.08;;
14858;SDS011;7521;51.700;6.874;2023-02-23T08:32:47;99.00;;;49.95;;
14858;SDS011;7521;51.700;6.874;2023-02-23T08:35:53;94.83;;;49.10;;
14858;SDS011;7521;51.700;6.874;2023-02-23T08:38:58;94.90;;;47.95;;
14858;SDS011;7521;51.700;6.874;2023-02-23T08:42:04;94.50;;;47.70;;
14858;SDS011;7521;51.700;6.874;2023-02-23T08:45:10;105.43;;;55.30;;
14858;SDS011;7521;51.700;6.874;2023-02-23T08:48:15;88.93;;;48.23;;
14858;SDS011;7521;51.700;6.874;2023-02-23T08:51:21;84.38;;;45.33;;
14858;SDS011;7521;51.700;6.874;2023-02-23T08:54:26;93.77;;;46.40;;
14858;SDS011;7521;51.700;6.874;2023-02-23T08:57:34;83.97;;;43.77;;
14858;SDS011;7521;51.700;6.874;2023-02-23T09:00:40;77.80;;;40.77;;
14858;SDS011;7521;51.700;6.874;2023-02-23T09:03:45;77.10;;;40.70;;
14858;SDS011;7521;51.700;6.874;2023-02-23T09:06:50;72.60;;;39.73;;
14858;SDS011;7521;51.700;6.874;2023-02-23T09:09:56;81.43;;;41.07;;
14858;SDS011;7521;51.700;6.874;2023-02-23T09:13:01;73.27;;;40.20;;
14858;SDS011;7521;51.700;6.874;2023-02-23T09:16:06;79.10;;;40.47;;
14858;SDS011;7521;51.700;6.874;2023-02-23T09:19:12;77.73;;;41.40;;
14858;SDS011;7521;51.700;6.874;2023-02-23T09:22:17;72.93;;;39.67;;
14858;SDS011;7521;51.700;6.874;2023-02-23T09:25:22;74.70;;;39.13;;
14858;SDS011;7521;51.700;6.874;2023-02-23T09:28:27;72.60;;;39.80;;
14858;SDS011;7521;51.700;6.874;2023-02-23T09:31:35;66.43;;;38.40;;
14858;SDS011;7521;51.700;6.874;2023-02-23T09:34:42;68.70;;;37.60;;
14858;SDS011;7521;51.700;6.874;2023-02-23T09:37:48;74.28;;;40.03;;
14858;SDS011;7521;51.700;6.874;2023-02-23T09:40:53;68.40;;;39.10;;
14858;SDS011;7521;51.700;6.874;2023-02-23T09:44:01;71.20;;;36.70;;
14858;SDS011;7521;51.700;6.874;2023-02-23T09:50:31;67.13;;;37.20;;
14858;SDS011;7521;51.700;6.874;2023-02-23T09:53:42;65.60;;;35.40;;
14858;SDS011;7521;51.700;6.874;2023-02-23T09:56:49;62.17;;;34.70;;
14858;SDS011;7521;51.700;6.874;2023-02-23T09:59:55;65.10;;;35.13;;
14858;SDS011;7521;51.700;6.874;2023-02-23T10:03:16;65.28;;;35.83;;
14858;SDS011;7521;51.700;6.874;2023-02-23T10:06:23;61.97;;;32.03;;
14858;SDS011;7521;51.700;6.874;2023-02-23T10:16:06;57.60;;;30.10;;
14858;SDS011;7521;51.700;6.874;2023-02-23T10:19:21;54.93;;;30.43;;
14858;SDS011;7521;51.700;6.874;2023-02-23T10:22:31;55.80;;;31.20;;
14858;SDS011;7521;51.700;6.874;2023-02-23T10:25:39;53.13;;;30.47;;
14858;SDS011;7521;51.700;6.874;2023-02-23T10:28:45;50.90;;;29.87;;
14858;SDS011;7521;51.700;6.874;2023-02-23T10:31:53;53.33;;;29.97;;
14858;SDS011;7521;51.700;6.874;2023-02-23T10:35:00;56.80;;;31.40;;
14858;SDS011;7521;51.700;6.874;2023-02-23T10:38:14;55.23;;;31.47;;
14858;SDS011;7521;51.700;6.874;2023-02-23T10:41:19;55.87;;;31.03;;
14858;SDS011;7521;51.700;6.874;2023-02-23T10:44:25;57.55;;;31.60;;
14858;SDS011;7521;51.700;6.874;2023-02-23T10:47:32;53.33;;;29.63;;
14858;SDS011;7521;51.700;6.874;2023-02-23T10:50:38;55.50;;;29.27;;
14858;SDS011;7521;51.700;6.874;2023-02-23T10:53:44;49.03;;;28.17;;
14858;SDS011;7521;51.700;6.874;2023-02-23T10:56:50;50.37;;;27.77;;
14858;SDS011;7521;51.700;6.874;2023-02-23T11:03:14;47.27;;;27.57;;
14858;SDS011;7521;51.700;6.874;2023-02-23T11:09:34;47.83;;;26.30;;
14858;SDS011;7521;51.700;6.874;2023-02-23T11:12:40;44.27;;;25.87;;
14858;SDS011;7521;51.700;6.874;2023-02-23T11:15:45;45.20;;;26.13;;
14858;SDS011;7521;51.700;6.874;2023-02-23T11:21:59;43.27;;;26.17;;
14858;SDS011;7521;51.700;6.874;2023-02-23T11:25:11;47.10;;;25.40;;
14858;SDS011;7521;51.700;6.874;2023-02-23T11:28:23;40.53;;;24.80;;
14858;SDS011;7521;51.700;6.874;2023-02-23T11:31:31;48.13;;;27.97;;
14858;SDS011;7521;51.700;6.874;2023-02-23T11:34:36;45.63;;;25.70;;
14858;SDS011;7521;51.700;6.874;2023-02-23T11:37:45;46.03;;;27.63;;
14858;SDS011;7521;51.700;6.874;2023-02-23T11:41:00;51.23;;;29.20;;
14858;SDS011;7521;51.700;6.874;2023-02-23T11:44:08;48.07;;;28.53;;
14858;SDS011;7521;51.700;6.874;2023-02-23T11:47:22;50.50;;;27.83;;
14858;SDS011;7521;51.700;6.874;2023-02-23T11:50:32;48.23;;;29.27;;
14858;SDS011;7521;51.700;6.874;2023-02-23T11:53:38;52.33;;;29.07;;
14858;SDS011;7521;51.700;6.874;2023-02-23T11:56:47;46.93;;;27.37;;
14858;SDS011;7521;51.700;6.874;2023-02-23T11:59:52;49.77;;;28.43;;
14858;SDS011;7521;51.700;6.874;2023-02-23T12:02:58;48.53;;;28.43;;
14858;SDS011;7521;51.700;6.874;2023-02-23T12:06:04;45.80;;;26.97;;
14858;SDS011;7521;51.700;6.874;2023-02-23T12:09:14;48.23;;;27.97;;
14858;SDS011;7521;51.700;6.874;2023-02-23T12:12:22;47.80;;;28.27;;
14858;SDS011;7521;51.700;6.874;2023-02-23T12:22:05;48.47;;;28.50;;
14858;SDS011;7521;51.700;6.874;2023-02-23T12:25:27;49.87;;;28.27;;
14858;SDS011;7521;51.700;6.874;2023-02-23T12:28:39;47.23;;;27.53;;
14858;SDS011;7521;51.700;6.874;2023-02-23T12:32:09;47.90;;;27.77;;
14858;SDS011;7521;51.700;6.874;2023-02-23T12:35:14;48.00;;;27.73;;
14858;SDS011;7521;51.700;6.874;2023-02-23T12:38:32;43.20;;;26.40;;
14858;SDS011;7521;51.700;6.874;2023-02-23T12:41:44;44.30;;;26.83;;
14858;SDS011;7521;51.700;6.874;2023-02-23T12:45:00;47.47;;;26.47;;
14858;SDS011;7521;51.700;6.874;2023-02-23T12:48:12;47.13;;;25.90;;
14858;SDS011;7521;51.700;6.874;2023-02-23T12:54:24;50.92;;;30.35;;
14858;SDS011;7521;51.700;6.874;2023-02-23T13:00:40;49.60;;;27.35;;
14858;SDS011;7521;51.700;6.874;2023-02-23T13:06:55;48.38;;;26.13;;
14858;SDS011;7521;51.700;6.874;2023-02-23T13:10:25;41.73;;;23.43;;
14858;SDS011;7521;51.700;6.874;2023-02-23T13:13:43;40.93;;;24.33;;
14858;SDS011;7521;51.700;6.874;2023-02-23T13:16:50;46.87;;;29.07;;
14858;SDS011;7521;51.700;6.874;2023-02-23T13:20:00;38.20;;;23.50;;
14858;SDS011;7521;51.700;6.874;2023-02-23T13:29:45;34.33;;;20.97;;
14858;SDS011;7521;51.700;6.874;2023-02-23T13:32:53;34.03;;;20.97;;
14858;SDS011;7521;51.700;6.874;2023-02-23T13:35:59;34.57;;;21.47;;
14858;SDS011;7521;51.700;6.874;2023-02-23T13:48:55;32.77;;;20.67;;
14858;SDS011;7521;51.700;6.874;2023-02-23T13:52:07;33.37;;;20.80;;
14858;SDS011;7521;51.700;6.874;2023-02-23T13:58:31;32.97;;;20.13;;
14858;SDS011;7521;51.700;6.874;2023-02-23T14:01:38;32.67;;;20.70;;
14858;SDS011;7521;51.700;6.874;2023-02-23T14:04:43;35.00;;;19.97;;
14858;SDS011;7521;51.700;6.874;2023-02-23T14:07:52;34.90;;;19.48;;
14858;SDS011;7521;51.700;6.874;2023-02-23T14:10:58;35.97;;;21.10;;
14858;SDS011;7521;51.700;6.874;2023-02-23T14:14:03;32.27;;;20.63;;
14858;SDS011;7521;51.700;6.874;2023-02-23T14:30:43;33.53;;;20.50;;
14858;SDS011;7521;51.700;6.874;2023-02-23T14:33:52;30.30;;;19.13;;
14858;SDS011;7521;51.700;6.874;2023-02-23T14:37:03;31.20;;;19.40;;
14858;SDS011;7521;51.700;6.874;2023-02-23T14:43:29;37.08;;;21.00;;
14858;SDS011;7521;51.700;6.874;2023-02-23T14:46:35;33.10;;;20.27;;
14858;SDS011;7521;51.700;6.874;2023-02-23T14:49:41;35.43;;;21.60;;
14858;SDS011;7521;51.700;6.874;2023-02-23T14:52:47;32.40;;;20.80;;
14858;SDS011;7521;51.700;6.874;2023-02-23T14:55:55;33.43;;;21.00;;
14858;SDS011;7521;51.700;6.874;2023-02-23T14:59:02;33.50;;;20.40;;
14858;SDS011;7521;51.700;6.874;2023-02-23T15:02:15;34.63;;;21.17;;
14858;SDS011;7521;51.700;6.874;2023-02-23T15:05:21;41.17;;;22.40;;
14858;SDS011;7521;51.700;6.874;2023-02-23T15:08:29;37.00;;;20.80;;
14858;SDS011;7521;51.700;6.874;2023-02-23T15:11:34;39.30;;;22.77;;
14858;SDS011;7521;51.700;6.874;2023-02-23T15:14:41;39.67;;;21.37;;
14858;SDS011;7521;51.700;6.874;2023-02-23T15:17:47;36.47;;;18.33;;
14858;SDS011;7521;51.700;6.874;2023-02-23T15:20:52;34.67;;;18.90;;
14858;SDS011;7521;51.700;6.874;2023-02-23T15:24:02;32.43;;;17.00;;
14858;SDS011;7521;51.700;6.874;2023-02-23T15:27:19;35.30;;;18.20;;
14858;SDS011;7521;51.700;6.874;2023-02-23T15:30:27;33.37;;;17.20;;
14858;SDS011;7521;51.700;6.874;2023-02-23T15:33:34;29.57;;;15.97;;
14858;SDS011;7521;51.700;6.874;2023-02-23T15:36:41;31.33;;;16.73;;
14858;SDS011;7521;51.700;6.874;2023-02-23T15:39:52;37.83;;;19.07;;
14858;SDS011;7521;51.700;6.874;2023-02-23T15:42:58;33.30;;;17.20;;
14858;SDS011;7521;51.700;6.874;2023-02-23T15:46:06;34.33;;;17.27;;
14858;SDS011;7521;51.700;6.874;2023-02-23T15:49:12;35.40;;;17.73;;
14858;SDS011;7521;51.700;6.874;2023-02-23T15:52:20;34.43;;;16.93;;
14858;SDS011;7521;51.700;6.874;2023-02-23T15:55:27;32.17;;;17.57;;
14858;SDS011;7521;51.700;6.874;2023-02-23T15:58:38;32.60;;;17.30;;
14858;SDS011;7521;51.700;6.874;2023-02-23T16:01:44;34.17;;;18.40;;
14858;SDS011;7521;51.700;6.874;2023-02-23T16:04:49;32.47;;;17.27;;
14858;SDS011;7521;51.700;6.874;2023-02-23T16:08:04;33.57;;;19.20;;
14858;SDS011;7521;51.700;6.874;2023-02-23T16:11:13;32.83;;;18.87;;
14858;SDS011;7521;51.700;6.874;2023-02-23T16:14:20;35.27;;;18.27;;
14858;SDS011;7521;51.700;6.874;2023-02-23T16:20:38;37.17;;;19.97;;
14858;SDS011;7521;51.700;6.874;2023-02-23T16:23:46;33.13;;;19.93;;
14858;SDS011;7521;51.700;6.874;2023-02-23T16:26:54;54.57;;;27.57;;
14858;SDS011;7521;51.700;6.874;2023-02-23T16:30:15;57.50;;;31.80;;
14858;SDS011;7521;51.700;6.874;2023-02-23T16:33:21;75.73;;;40.30;;
14858;SDS011;7521;51.700;6.874;2023-02-23T16:36:33;44.57;;;23.07;;
14858;SDS011;7521;51.700;6.874;2023-02-23T16:39:40;53.07;;;27.70;;
14858;SDS011;7521;51.700;6.874;2023-02-23T16:42:45;42.88;;;24.35;;
14858;SDS011;7521;51.700;6.874;2023-02-23T16:45:50;77.43;;;40.88;;
14858;SDS011;7521;51.700;6.874;2023-02-23T16:48:56;41.03;;;21.95;;
14858;SDS011;7521;51.700;6.874;2023-02-23T16:52:05;44.77;;;24.00;;
14858;SDS011;7521;51.700;6.874;2023-02-23T16:55:17;52.27;;;27.63;;
14858;SDS011;7521;51.700;6.874;2023-02-23T16:58:23;37.40;;;21.73;;
14858;SDS011;7521;51.700;6.874;2023-02-23T17:01:28;37.37;;;18.87;;
14858;SDS011;7521;51.700;6.874;2023-02-23T17:04:34;35.55;;;22.70;;
14858;SDS011;7521;51.700;6.874;2023-02-23T17:07:39;69.03;;;40.92;;
14858;SDS011;7521;51.700;6.874;2023-02-23T17:10:45;54.33;;;32.95;;
14858;SDS011;7521;51.700;6.874;2023-02-23T17:13:50;56.67;;;33.17;;
14858;SDS011;7521;51.700;6.874;2023-02-23T17:16:56;37.37;;;20.07;;
14858;SDS011;7521;51.700;6.874;2023-02-23T17:20:01;35.63;;;19.65;;
14858;SDS011;7521;51.700;6.874;2023-02-23T17:23:06;35.10;;;18.80;;
14858;SDS011;7521;51.700;6.874;2023-02-23T17:26:12;39.80;;;22.13;;
14858;SDS011;7521;51.700;6.874;2023-02-23T17:29:17;47.28;;;23.90;;
14858;SDS011;7521;51.700;6.874;2023-02-23T17:32:22;42.40;;;21.93;;
14858;SDS011;7521;51.700;6.874;2023-02-23T17:35:28;36.30;;;19.53;;
14858;SDS011;7521;51.700;6.874;2023-02-23T17:38:37;39.00;;;20.47;;
14858;SDS011;7521;51.700;6.874;2023-02-23T17:41:42;67.07;;;36.33;;
14858;SDS011;7521;51.700;6.874;2023-02-23T17:44:47;50.77;;;26.97;;
14858;SDS011;7521;51.700;6.874;2023-02-23T17:47:53;36.28;;;21.63;;
14858;SDS011;7521;51.700;6.874;2023-02-23T17:51:07;39.17;;;26.07;;
14858;SDS011;7521;51.700;6.874;2023-02-23T17:54:15;33.90;;;19.30;;
14858;SDS011;7521;51.700;6.874;2023-02-23T17:57:21;32.67;;;19.40;;
14858;SDS011;7521;51.700;6.874;2023-02-23T18:00:26;30.70;;;16.90;;
14858;SDS011;7521;51.700;6.874;2023-02-23T18:03:33;31.13;;;17.37;;
14858;SDS011;7521;51.700;6.874;2023-02-23T18:06:38;28.67;;;16.00;;
14858;SDS011;7521;51.700;6.874;2023-02-23T18:09:44;34.03;;;16.77;;
14858;SDS011;7521;51.700;6.874;2023-02-23T18:12:49;32.87;;;17.70;;
14858;SDS011;7521;51.700;6.874;2023-02-23T18:15:57;36.60;;;17.63;;
14858;SDS011;7521;51.700;6.874;2023-02-23T18:19:03;32.80;;;16.37;;
14858;SDS011;7521;51.700;6.874;2023-02-23T18:22:09;33.20;;;18.38;;
14858;SDS011;7521;51.700;6.874;2023-02-23T18:25:22;42.10;;;25.57;;
14858;SDS011;7521;51.700;6.874;2023-02-23T18:28:28;39.03;;;19.07;;
14858;SDS011;7521;51.700;6.874;2023-02-23T18:31:34;32.93;;;17.33;;
14858;SDS011;7521;51.700;6.874;2023-02-23T18:34:39;30.67;;;17.90;;
14858;SDS011;7521;51.700;6.874;2023-02-23T18:37:44;34.22;;;18.20;;
14858;SDS011;7521;51.700;6.874;2023-02-23T18:40:49;28.80;;;16.08;;
14858;SDS011;7521;51.700;6.874;2023-02-23T18:43:55;29.52;;;15.10;;
14858;SDS011;7521;51.700;6.874;2023-02-23T18:47:00;33.43;;;16.23;;
14858;SDS011;7521;51.700;6.874;2023-02-23T18:50:06;35.07;;;17.03;;
14858;SDS011;7521;51.700;6.874;2023-02-23T18:53:11;33.07;;;17.50;;
14858;SDS011;7521;51.700;6.874;2023-02-23T18:56:18;36.50;;;17.97;;
14858;SDS011;7521;51.700;6.874;2023-02-23T18:59:26;34.67;;;18.80;;
14858;SDS011;7521;51.700;6.874;2023-02-23T19:02:31;32.22;;;16.80;;
14858;SDS011;7521;51.700;6.874;2023-02-23T19:05:41;34.30;;;18.98;;
14858;SDS011;7521;51.700;6.874;2023-02-23T19:08:49;37.83;;;18.90;;
14858;SDS011;7521;51.700;6.874;2023-02-23T19:11:58;39.07;;;19.47;;
14858;SDS011;7521;51.700;6.874;2023-02-23T19:15:03;37.83;;;19.35;;
14858;SDS011;7521;51.700;6.874;2023-02-23T19:18:11;35.27;;;18.60;;
14858;SDS011;7521;51.700;6.874;2023-02-23T19:21:17;40.58;;;19.38;;
14858;SDS011;7521;51.700;6.874;2023-02-23T19:24:23;46.23;;;20.83;;
14858;SDS011;7521;51.700;6.874;2023-02-23T19:27:28;43.80;;;21.10;;
14858;SDS011;7521;51.700;6.874;2023-02-23T19:30:33;41.67;;;20.40;;
14858;SDS011;7521;51.700;6.874;2023-02-23T19:33:38;42.55;;;20.23;;
14858;SDS011;7521;51.700;6.874;2023-02-23T19:36:43;51.57;;;26.40;;
14858;SDS011;7521;51.700;6.874;2023-02-23T19:39:51;29.13;;;12.83;;
14858;SDS011;7521;51.700;6.874;2023-02-23T19:42:57;28.27;;;14.40;;
14858;SDS011;7521;51.700;6.874;2023-02-23T19:46:03;29.47;;;15.37;;
14858;SDS011;7521;51.700;6.874;2023-02-23T19:49:09;28.67;;;12.10;;
14858;SDS011;7521;51.700;6.874;2023-02-23T19:52:14;29.38;;;10.65;;
14858;SDS011;7521;51.700;6.874;2023-02-23T19:55:19;28.83;;;10.18;;
14858;SDS011;7521;51.700;6.874;2023-02-23T19:58:24;25.90;;;8.77;;
14858;SDS011;7521;51.700;6.874;2023-02-23T20:01:31;25.83;;;8.10;;
14858;SDS011;7521;51.700;6.874;2023-02-23T20:04:36;29.57;;;6.87;;
14858;SDS011;7521;51.700;6.874;2023-02-23T20:07:41;25.92;;;6.78;;
14858;SDS011;7521;51.700;6.874;2023-02-23T20:10:46;25.90;;;6.83;;
14858;SDS011;7521;51.700;6.874;2023-02-23T20:13:52;26.02;;;7.30;;
14858;SDS011;7521;51.700;6.874;2023-02-23T20:16:57;23.50;;;6.70;;
14858;SDS011;7521;51.700;6.874;2023-02-23T20:20:03;22.47;;;5.13;;